createdAt,value
2022-08-26T00:01:57.052Z,9.40
2022-08-26T00:04:26.137Z,9.53
2022-08-26T00:06:57.062Z,9.10
2022-08-26T00:09:25.824Z,8.97
2022-08-26T00:11:54.466Z,9.83
2022-08-26T00:14:28.328Z,9.60
2022-08-26T00:16:58.945Z,9.23
2022-08-26T00:19:27.287Z,9.40
2022-08-26T00:21:54.556Z,9.77
2022-08-26T00:24:23.550Z,9.13
2022-08-26T00:26:51.689Z,8.97
2022-08-26T00:29:21.221Z,9.70
2022-08-26T00:31:48.877Z,9.63
2022-08-26T00:34:18.326Z,9.90
2022-08-26T00:36:49.371Z,9.20
2022-08-26T00:39:20.156Z,9.80
2022-08-26T00:41:48.023Z,8.93
2022-08-26T00:44:15.172Z,9.43
2022-08-26T00:46:47.441Z,10.03
2022-08-26T00:49:23.799Z,9.93
2022-08-26T00:51:57.239Z,10.40
2022-08-26T00:54:27.594Z,9.43
2022-08-26T00:57:08.595Z,10.07
2022-08-26T00:59:57.310Z,10.50
2022-08-26T01:02:25.248Z,10.60
2022-08-26T01:04:58.247Z,10.90
2022-08-26T01:07:30.189Z,10.17
2022-08-26T01:10:00.009Z,10.47
2022-08-26T01:12:32.449Z,10.47
2022-08-26T01:15:01.586Z,9.20
2022-08-26T01:17:28.652Z,8.70
2022-08-26T01:20:23.883Z,10.80
2022-08-26T01:23:04.153Z,9.17
2022-08-26T01:25:34.159Z,9.20
2022-08-26T01:28:06.993Z,9.80
2022-08-26T01:30:35.583Z,10.10
2022-08-26T01:33:08.296Z,10.87
2022-08-26T01:35:37.998Z,9.70
2022-08-26T01:38:05.560Z,10.87
2022-08-26T01:40:37.458Z,9.77
2022-08-26T01:43:08.232Z,9.20
2022-08-26T01:45:37.638Z,9.73
2022-08-26T01:48:09.172Z,9.70
2022-08-26T01:50:38.708Z,9.23
2022-08-26T01:53:11.762Z,9.97
2022-08-26T01:55:43.901Z,9.77
2022-08-26T01:58:25.051Z,10.40
2022-08-26T02:00:52.584Z,9.47
2022-08-26T02:03:22.359Z,10.20
2022-08-26T02:06:06.004Z,10.23
2022-08-26T02:08:47.148Z,9.30
2022-08-26T02:11:14.412Z,10.00
2022-08-26T02:13:59.884Z,10.40
2022-08-26T02:16:31.433Z,11.90
2022-08-26T02:19:00.771Z,10.67
2022-08-26T02:21:29.469Z,9.60
2022-08-26T02:24:17.292Z,10.20
2022-08-26T02:26:46.999Z,11.20
2022-08-26T02:29:32.900Z,10.63
2022-08-26T02:32:00.038Z,11.40
2022-08-26T02:34:32.094Z,10.00
2022-08-26T02:37:09.443Z,10.80
2022-08-26T02:39:40.741Z,10.90
2022-08-26T02:42:08.145Z,10.90
2022-08-26T02:44:35.366Z,11.03
2022-08-26T02:47:02.788Z,11.10
2022-08-26T02:49:30.490Z,11.57
2022-08-26T02:51:57.900Z,10.23
2022-08-26T02:54:29.173Z,11.00
2022-08-26T02:56:56.386Z,11.83
2022-08-26T02:59:24.665Z,12.17
2022-08-26T03:01:52.453Z,12.10
2022-08-26T03:04:23.771Z,10.50
2022-08-26T03:06:53.834Z,11.10
2022-08-26T03:09:23.503Z,11.60
2022-08-26T03:11:52.306Z,10.97
2022-08-26T03:14:19.507Z,11.37
2022-08-26T03:16:48.501Z,12.20
2022-08-26T03:19:17.705Z,10.30
2022-08-26T03:21:45.167Z,12.30
2022-08-26T03:24:15.835Z,11.10
2022-08-26T03:26:52.145Z,11.93
2022-08-26T03:29:39.518Z,11.67
2022-08-26T03:32:06.911Z,11.63
2022-08-26T03:34:34.198Z,11.57
2022-08-26T03:37:01.821Z,11.67
2022-08-26T03:39:31.569Z,11.30
2022-08-26T03:42:00.107Z,11.80
2022-08-26T03:44:27.375Z,12.40
2022-08-26T03:46:55.103Z,13.13
2022-08-26T03:49:22.536Z,11.63
2022-08-26T03:51:50.067Z,11.57
2022-08-26T03:54:17.816Z,12.33
2022-08-26T03:56:46.449Z,11.47
2022-08-26T03:59:14.263Z,11.60
2022-08-26T04:01:41.733Z,11.37
2022-08-26T04:04:08.874Z,12.30
2022-08-26T04:06:43.349Z,11.50
2022-08-26T04:09:22.746Z,12.97
2022-08-26T04:11:52.258Z,12.30
2022-08-26T04:14:23.702Z,12.17
2022-08-26T04:16:53.461Z,12.57
2022-08-26T04:19:24.231Z,11.70
2022-08-26T04:21:55.606Z,11.97
2022-08-26T04:24:27.081Z,12.10
2022-08-26T04:26:56.627Z,12.30
2022-08-26T04:29:26.863Z,12.53
2022-08-26T04:31:55.961Z,13.97
2022-08-26T04:34:29.071Z,12.67
2022-08-26T04:36:57.971Z,13.10
2022-08-26T04:39:25.664Z,12.13
2022-08-26T04:41:55.218Z,9.50
2022-08-26T04:44:25.550Z,11.57
2022-08-26T04:46:53.426Z,12.87
2022-08-26T04:49:22.600Z,11.40
2022-08-26T04:51:49.782Z,11.80
2022-08-26T04:54:16.903Z,11.17
2022-08-26T04:56:49.447Z,11.17
2022-08-26T04:59:18.133Z,10.40
2022-08-26T05:01:50.257Z,10.33
2022-08-26T05:04:19.998Z,10.10
2022-08-26T05:06:48.867Z,10.27
2022-08-26T05:09:18.556Z,11.73
2022-08-26T05:11:48.629Z,10.50
2022-08-26T05:14:22.377Z,9.80
2022-08-26T05:16:50.041Z,9.67
2022-08-26T05:19:18.914Z,11.90
2022-08-26T05:21:48.625Z,10.13
2022-08-26T05:24:17.215Z,10.03
2022-08-26T05:26:45.835Z,9.80
2022-08-26T05:29:13.988Z,10.10
2022-08-26T05:31:41.648Z,8.67
2022-08-26T05:34:09.127Z,9.33
2022-08-26T05:36:37.177Z,9.43
2022-08-26T05:39:07.368Z,9.00
2022-08-26T05:41:38.671Z,10.47
2022-08-26T05:44:10.573Z,8.77
2022-08-26T05:46:39.525Z,9.80
2022-08-26T05:49:12.508Z,8.97
2022-08-26T05:51:47.790Z,9.40
2022-08-26T05:54:21.874Z,8.20
2022-08-26T05:56:52.878Z,8.77
2022-08-26T05:59:21.362Z,8.20
2022-08-26T06:01:52.924Z,9.60
2022-08-26T06:04:20.434Z,8.80
2022-08-26T06:06:47.828Z,8.87
2022-08-26T06:09:17.513Z,8.30
2022-08-26T06:11:45.479Z,7.43
2022-08-26T06:14:12.662Z,9.17
2022-08-26T06:16:44.445Z,7.80
2022-08-26T06:19:15.640Z,8.40
2022-08-26T06:21:53.987Z,7.80
2022-08-26T06:24:39.941Z,7.73
2022-08-26T06:27:11.295Z,7.70
2022-08-26T06:29:39.862Z,7.60
2022-08-26T06:32:07.210Z,8.10
2022-08-26T06:34:35.989Z,8.80
2022-08-26T06:37:03.775Z,7.97
2022-08-26T06:39:32.261Z,7.53
2022-08-26T06:42:00.981Z,7.73
2022-08-26T06:44:30.655Z,6.80
2022-08-26T06:46:59.543Z,7.70
2022-08-26T06:49:27.442Z,7.60
2022-08-26T06:51:59.487Z,8.20
2022-08-26T06:54:30.343Z,6.87
2022-08-26T06:56:58.332Z,7.47
2022-08-26T06:59:26.197Z,7.17
2022-08-26T07:01:54.790Z,6.37
2022-08-26T07:04:24.616Z,7.97
2022-08-26T07:06:54.339Z,6.23
2022-08-26T07:09:28.492Z,6.30
2022-08-26T07:11:56.654Z,6.47
2022-08-26T07:14:25.289Z,6.20
2022-08-26T07:16:54.187Z,6.17
2022-08-26T07:19:30.641Z,7.10
2022-08-26T07:22:04.905Z,7.10
2022-08-26T07:24:35.357Z,6.53
2022-08-26T07:27:06.662Z,5.80
2022-08-26T07:29:35.785Z,6.20
2022-08-26T07:32:04.028Z,5.60
2022-08-26T07:34:33.332Z,6.37
2022-08-26T07:37:00.799Z,5.60
2022-08-26T07:39:28.489Z,5.70
2022-08-26T07:42:07.745Z,5.87
2022-08-26T07:44:37.081Z,5.15
2022-08-26T07:47:19.392Z,5.03
2022-08-26T07:49:55.113Z,6.03
2022-08-26T07:52:26.198Z,5.60
2022-08-26T07:54:57.088Z,4.97
2022-08-26T07:57:26.292Z,5.70
2022-08-26T07:59:55.193Z,5.47
2022-08-26T08:02:24.566Z,5.13
2022-08-26T08:04:52.433Z,5.65
2022-08-26T08:07:19.647Z,5.05
2022-08-26T08:09:51.350Z,5.43
2022-08-26T08:12:19.267Z,4.75
2022-08-26T08:14:47.310Z,6.00
2022-08-26T08:17:16.112Z,5.50
2022-08-26T08:19:43.388Z,5.63
2022-08-26T08:22:17.600Z,5.67
2022-08-26T08:24:49.938Z,5.45
2022-08-26T08:27:23.767Z,4.60
2022-08-26T08:29:54.896Z,5.38
2022-08-26T08:32:23.783Z,4.55
2022-08-26T08:34:51.028Z,5.30
2022-08-26T08:37:18.203Z,5.43
2022-08-26T08:39:45.504Z,5.83
2022-08-26T08:42:47.318Z,4.50
2022-08-26T08:45:21.290Z,5.77
2022-08-26T08:47:54.908Z,5.67
2022-08-26T08:50:49.528Z,5.90
2022-08-26T08:53:41.752Z,5.33
2022-08-26T08:56:31.243Z,4.90
2022-08-26T08:59:25.316Z,6.20
2022-08-26T09:01:53.997Z,5.10
2022-08-26T09:05:15.288Z,5.90
2022-08-26T09:07:59.721Z,5.63
2022-08-26T09:10:34.764Z,5.20
2022-08-26T09:13:13.666Z,5.97
2022-08-26T09:16:06.786Z,7.17
2022-08-26T09:18:54.260Z,6.50
2022-08-26T09:21:25.915Z,6.20
2022-08-26T09:23:56.620Z,6.17
2022-08-26T09:26:30.781Z,6.10
2022-08-26T09:29:10.754Z,6.13
2022-08-26T09:31:39.260Z,7.03
2022-08-26T09:34:08.364Z,7.20
2022-08-26T09:36:41.351Z,6.83
2022-08-26T09:39:34.620Z,6.80
2022-08-26T09:42:25.598Z,5.80
2022-08-26T09:45:06.979Z,5.80
2022-08-26T09:47:48.019Z,6.13
2022-08-26T09:50:36.613Z,5.90
2022-08-26T09:53:14.557Z,6.00
2022-08-26T09:55:45.688Z,6.20
2022-08-26T09:58:33.651Z,7.33
2022-08-26T10:01:06.207Z,6.40
2022-08-26T10:03:37.928Z,5.63
2022-08-26T10:06:28.399Z,6.00
2022-08-26T10:09:00.161Z,5.80
2022-08-26T10:11:30.581Z,5.80
2022-08-26T10:14:06.513Z,6.10
2022-08-26T10:17:07.544Z,5.77
2022-08-26T10:20:00.036Z,6.90
2022-08-26T10:23:07.070Z,5.90
2022-08-26T10:25:59.194Z,5.13
2022-08-26T10:28:53.058Z,5.80
2022-08-26T10:31:51.614Z,5.53
2022-08-26T10:34:21.229Z,6.60
2022-08-26T10:37:15.041Z,5.90
2022-08-26T10:40:13.184Z,6.43
2022-08-26T10:42:48.448Z,6.97
2022-08-26T10:45:20.384Z,6.60
2022-08-26T10:47:59.971Z,6.80
2022-08-26T10:50:42.476Z,7.37
2022-08-26T10:53:36.965Z,6.80
2022-08-26T10:56:38.043Z,6.20
2022-08-26T10:59:50.823Z,7.60
2022-08-26T11:02:26.524Z,7.23
2022-08-26T11:05:04.591Z,8.97
2022-08-26T11:07:36.702Z,7.40
2022-08-26T11:10:18.580Z,6.17
2022-08-26T11:12:49.144Z,6.43
2022-08-26T11:15:26.785Z,8.20
2022-08-26T11:18:04.169Z,7.70
2022-08-26T11:20:41.811Z,7.70
2022-08-26T11:23:23.902Z,6.60
2022-08-26T11:25:56.998Z,7.93
2022-08-26T11:28:45.919Z,7.50
2022-08-26T11:31:25.851Z,7.37
2022-08-26T11:33:57.055Z,7.97
2022-08-26T11:36:47.811Z,7.93
2022-08-26T11:39:15.123Z,7.77
2022-08-26T11:41:53.077Z,6.73
2022-08-26T11:44:37.383Z,7.67
2022-08-26T11:47:11.551Z,6.83
2022-08-26T11:49:39.362Z,8.07
2022-08-26T11:52:27.193Z,7.50
2022-08-26T11:55:14.850Z,7.20
2022-08-26T11:57:52.253Z,3.17
2022-08-26T12:00:28.087Z,4.13
2022-08-26T12:03:07.174Z,3.67
2022-08-26T12:05:51.224Z,3.20
2022-08-26T12:08:28.104Z,4.20
2022-08-26T12:11:09.250Z,10.40
2022-08-26T12:13:39.279Z,9.50
2022-08-26T12:16:07.628Z,4.33
2022-08-26T12:18:38.961Z,3.87
2022-08-26T12:21:25.321Z,3.93
2022-08-26T12:23:55.952Z,4.37
2022-08-26T12:26:33.122Z,4.00
2022-08-26T12:29:20.272Z,4.10
2022-08-26T12:32:13.139Z,4.90
2022-08-26T12:34:45.915Z,5.00
2022-08-26T12:37:14.477Z,4.40
2022-08-26T12:39:44.770Z,4.50
2022-08-26T12:42:17.301Z,4.80
2022-08-26T12:44:53.934Z,4.50
2022-08-26T12:47:42.545Z,3.80
2022-08-26T12:50:27.697Z,4.20
2022-08-26T12:53:21.244Z,5.07
2022-08-26T12:55:50.389Z,4.20
2022-08-26T12:58:32.905Z,4.10
2022-08-26T13:01:08.796Z,3.90
2022-08-26T13:03:38.970Z,4.73
2022-08-26T13:06:22.847Z,15.30
2022-08-26T13:09:06.285Z,10.70
2022-08-26T13:11:39.488Z,5.30
2022-08-26T13:14:18.413Z,7.87
2022-08-26T13:16:51.787Z,4.90
2022-08-26T13:19:23.008Z,5.10
2022-08-26T13:21:56.967Z,5.73
2022-08-26T13:24:26.976Z,7.67
2022-08-26T13:31:00.255Z,8.47
2022-08-26T13:33:27.936Z,7.90
2022-08-26T13:35:55.253Z,13.47
2022-08-26T13:38:32.992Z,18.43
2022-08-26T13:41:02.568Z,8.43
2022-08-26T13:43:30.919Z,7.60
2022-08-26T13:45:58.113Z,9.00
2022-08-26T13:48:25.613Z,8.93
2022-08-26T13:50:53.722Z,11.33
2022-08-26T13:53:21.078Z,6.33
2022-08-26T13:55:48.593Z,7.50
2022-08-26T13:58:16.521Z,7.43
2022-08-26T14:00:43.682Z,7.23
2022-08-26T14:03:13.341Z,6.67
2022-08-26T14:05:40.909Z,6.63
2022-08-26T14:08:08.509Z,6.63
2022-08-26T14:10:36.855Z,6.37
2022-08-26T14:13:04.794Z,8.10
2022-08-26T14:15:36.157Z,16.70
2022-08-26T14:18:06.596Z,8.43
2022-08-26T14:20:37.324Z,7.17
2022-08-26T14:23:13.640Z,6.90
2022-08-26T14:25:40.906Z,7.37
2022-08-26T14:28:07.913Z,7.23
2022-08-26T14:30:35.661Z,6.97
2022-08-26T14:33:02.747Z,7.20
2022-08-26T14:35:31.385Z,5.77
2022-08-26T14:37:58.605Z,5.90
2022-08-26T14:40:31.726Z,6.33
2022-08-26T14:43:01.724Z,5.73
2022-08-26T14:45:29.276Z,7.40
2022-08-26T14:47:56.993Z,11.17
2022-08-26T14:50:26.169Z,13.37
2022-08-26T14:53:16.359Z,6.07
2022-08-26T14:55:43.714Z,6.47
2022-08-26T14:58:10.833Z,7.07
2022-08-26T15:00:38.919Z,7.57
2022-08-26T15:03:06.192Z,7.83
2022-08-26T15:05:34.148Z,7.90
2022-08-26T15:08:02.700Z,8.03
2022-08-26T15:10:29.754Z,7.90
2022-08-26T15:12:56.828Z,7.90
2022-08-26T15:15:24.555Z,8.27
2022-08-26T15:17:51.604Z,7.40
2022-08-26T15:20:18.798Z,6.30
2022-08-26T15:22:45.928Z,7.47
2022-08-26T15:25:14.092Z,8.10
2022-08-26T15:27:41.214Z,7.90
2022-08-26T15:30:11.303Z,8.50
2022-08-26T15:32:38.366Z,8.20
2022-08-26T15:35:09.141Z,9.43
2022-08-26T15:37:36.675Z,10.23
2022-08-26T15:40:05.104Z,10.60
2022-08-26T15:44:59.550Z,11.13
2022-08-26T15:49:53.990Z,10.70
2022-08-26T15:57:19.100Z,10.57
2022-08-26T16:02:14.008Z,11.53
2022-08-26T16:04:41.196Z,12.57
2022-08-26T16:07:10.731Z,11.80
2022-08-26T16:09:37.789Z,14.40
2022-08-26T16:12:05.503Z,12.43
2022-08-26T16:14:32.617Z,12.20
2022-08-26T16:16:59.597Z,11.33
2022-08-26T16:19:26.910Z,11.37
2022-08-26T16:21:53.989Z,11.67
2022-08-26T16:24:27.149Z,11.60
2022-08-26T16:26:57.213Z,13.53
2022-08-26T16:29:24.659Z,13.57
2022-08-26T16:31:53.356Z,13.90
2022-08-26T16:34:21.702Z,12.47
2022-08-26T16:36:48.966Z,12.43
2022-08-26T16:39:15.997Z,12.70
2022-08-26T16:41:44.226Z,11.93
2022-08-26T16:44:12.044Z,10.90
2022-08-26T16:46:39.718Z,10.27
2022-08-26T16:49:06.936Z,11.90
2022-08-26T16:51:38.334Z,11.37
2022-08-26T16:54:08.792Z,12.20
2022-08-26T16:56:36.786Z,17.73
2022-08-26T16:59:10.547Z,16.53
2022-08-26T17:01:37.745Z,16.57
2022-08-26T17:04:04.898Z,13.40
2022-08-26T17:06:32.075Z,12.87
2022-08-26T17:08:59.076Z,12.20
2022-08-26T17:11:26.088Z,14.57
2022-08-26T17:13:53.189Z,13.67
2022-08-26T17:16:23.331Z,14.27
2022-08-26T17:18:53.349Z,16.40
2022-08-26T17:21:20.556Z,16.17
2022-08-26T17:23:47.633Z,17.13
2022-08-26T17:26:14.701Z,14.47
2022-08-26T17:28:41.862Z,13.73
2022-08-26T17:31:11.808Z,20.60
2022-08-26T17:33:40.539Z,17.87
2022-08-26T17:36:09.322Z,19.43
2022-08-26T17:38:38.068Z,15.00
2022-08-26T17:41:10.827Z,14.50
2022-08-26T17:43:39.156Z,15.60
2022-08-26T17:46:08.443Z,13.27
2022-08-26T17:48:40.697Z,16.03
2022-08-26T17:51:12.582Z,15.00
2022-08-26T17:53:41.404Z,15.50
2022-08-26T17:56:12.562Z,17.77
2022-08-26T17:58:41.641Z,19.77
2022-08-26T18:01:19.923Z,15.57
2022-08-26T18:03:47.211Z,17.40
2022-08-26T18:06:15.214Z,17.57
2022-08-26T18:08:42.558Z,17.07
2022-08-26T18:11:18.079Z,20.13
2022-08-26T18:13:47.252Z,17.00
2022-08-26T18:16:17.424Z,15.80
2022-08-26T18:18:46.486Z,17.27
2022-08-26T18:21:20.658Z,17.07
2022-08-26T18:23:48.882Z,16.83
2022-08-26T18:26:28.661Z,15.93
2022-08-26T18:28:56.152Z,17.20
2022-08-26T18:31:23.804Z,17.67
2022-08-26T18:33:51.416Z,18.73
2022-08-26T18:36:29.749Z,18.33
2022-08-26T18:38:57.336Z,19.33
2022-08-26T18:41:27.830Z,20.37
2022-08-26T18:43:55.703Z,19.63
2022-08-26T18:46:25.667Z,17.97
2022-08-26T18:48:55.246Z,18.00
2022-08-26T18:51:30.363Z,17.17
2022-08-26T18:54:00.221Z,17.03
2022-08-26T18:56:28.353Z,14.63
2022-08-26T18:58:55.405Z,14.73
2022-08-26T19:01:27.261Z,15.23
2022-08-26T19:03:56.071Z,16.60
2022-08-26T19:06:24.928Z,16.07
2022-08-26T19:08:52.162Z,17.03
2022-08-26T19:11:31.717Z,14.90
2022-08-26T19:14:01.441Z,17.70
2022-08-26T19:16:30.077Z,21.47
2022-08-26T19:18:58.489Z,16.40
2022-08-26T19:21:25.697Z,14.87
2022-08-26T19:23:58.830Z,13.77
2022-08-26T19:26:27.220Z,13.97
2022-08-26T19:28:54.752Z,14.80
2022-08-26T19:31:22.121Z,14.70
2022-08-26T19:33:49.356Z,21.83
2022-08-26T19:36:22.485Z,20.90
2022-08-26T19:38:50.645Z,16.40
2022-08-26T19:41:25.478Z,19.80
2022-08-26T19:43:58.742Z,28.13
2022-08-26T19:46:26.693Z,17.77
2022-08-26T19:48:55.762Z,17.80
2022-08-26T19:51:30.153Z,16.80
2022-08-26T19:53:59.942Z,19.60
2022-08-26T19:56:28.461Z,30.60
2022-08-26T19:58:56.385Z,22.00
2022-08-26T20:01:24.665Z,19.70
2022-08-26T20:03:51.884Z,16.10
2022-08-26T20:06:20.064Z,16.63
2022-08-26T20:08:47.642Z,14.70
2022-08-26T20:11:19.017Z,14.37
2022-08-26T20:13:47.816Z,15.20
2022-08-26T20:16:16.628Z,14.60
2022-08-26T20:19:03.912Z,14.20
2022-08-26T20:21:35.585Z,12.03
2022-08-26T20:24:08.376Z,11.77
2022-08-26T20:26:38.795Z,16.53
2022-08-26T20:29:07.682Z,12.63
2022-08-26T20:31:35.481Z,11.40
2022-08-26T20:34:04.482Z,12.50
2022-08-26T20:36:32.973Z,11.40
2022-08-26T20:39:00.718Z,11.17
2022-08-26T20:41:28.699Z,11.63
2022-08-26T20:43:56.373Z,11.80
2022-08-26T20:46:25.616Z,12.60
2022-08-26T20:48:54.258Z,12.27
2022-08-26T20:51:23.604Z,15.30
2022-08-26T20:53:51.292Z,13.40
2022-08-26T20:56:23.797Z,12.27
2022-08-26T20:58:58.398Z,12.90
2022-08-26T21:01:34.474Z,12.57
2022-08-26T21:04:07.162Z,12.13
2022-08-26T21:06:36.235Z,12.00
2022-08-26T21:09:06.527Z,12.87
2022-08-26T21:11:36.137Z,11.63
2022-08-26T21:14:07.022Z,13.73
2022-08-26T21:16:43.948Z,11.77
2022-08-26T21:19:14.754Z,11.10
2022-08-26T21:21:42.298Z,12.03
2022-08-26T21:24:09.642Z,11.43
2022-08-26T21:26:37.554Z,9.83
2022-08-26T21:29:07.849Z,11.30
2022-08-26T21:31:35.170Z,11.43
2022-08-26T21:34:02.476Z,10.20
2022-08-26T21:36:29.901Z,9.57
2022-08-26T21:38:58.791Z,10.10
2022-08-26T21:41:26.912Z,8.70
2022-08-26T21:43:59.190Z,9.70
2022-08-26T21:46:30.239Z,11.20
2022-08-26T21:49:01.066Z,8.47
2022-08-26T21:51:33.243Z,9.50
2022-08-26T21:54:02.854Z,9.47
2022-08-26T21:56:32.320Z,9.57
2022-08-26T21:59:00.718Z,8.93
2022-08-26T22:01:34.810Z,9.30
2022-08-26T22:04:07.113Z,8.53
2022-08-26T22:06:40.866Z,7.87
2022-08-26T22:09:08.037Z,8.67
2022-08-26T22:11:35.201Z,7.53
2022-08-26T22:14:02.481Z,8.40
2022-08-26T22:16:29.531Z,9.63
2022-08-26T22:18:56.788Z,9.40
2022-08-26T22:21:28.039Z,8.33
2022-08-26T22:23:58.281Z,9.30
2022-08-26T22:26:29.585Z,9.40
2022-08-26T22:28:59.544Z,9.53
2022-08-26T22:31:37.176Z,10.37
2022-08-26T22:34:09.991Z,10.03
2022-08-26T22:36:43.021Z,8.80
2022-08-26T22:39:17.430Z,9.30
2022-08-26T22:41:45.360Z,9.23
2022-08-26T22:44:13.002Z,10.13
2022-08-26T22:46:41.862Z,8.63
2022-08-26T22:49:12.188Z,10.10
2022-08-26T22:51:39.406Z,9.53
2022-08-26T22:54:07.164Z,10.00
2022-08-26T22:56:34.579Z,10.00
2022-08-26T22:59:01.699Z,9.17
2022-08-26T23:01:28.858Z,9.77
2022-08-26T23:03:55.924Z,10.30
2022-08-26T23:06:23.094Z,9.80
2022-08-26T23:08:50.135Z,9.70
2022-08-26T23:11:17.425Z,9.83
2022-08-26T23:13:44.470Z,9.60
2022-08-26T23:16:13.428Z,10.10
2022-08-26T23:18:42.122Z,10.53
2022-08-26T23:21:10.651Z,10.93
2022-08-26T23:23:38.432Z,10.70
2022-08-26T23:26:07.650Z,10.87
2022-08-26T23:28:36.824Z,11.37
2022-08-26T23:31:05.349Z,10.20
2022-08-26T23:33:51.119Z,10.00
2022-08-26T23:36:18.399Z,9.73
2022-08-26T23:38:52.945Z,9.73
2022-08-26T23:41:22.870Z,10.50
2022-08-26T23:43:51.646Z,9.27
2022-08-26T23:46:19.936Z,10.93
2022-08-26T23:48:47.510Z,11.00
2022-08-26T23:51:33.290Z,10.50
2022-08-26T23:54:00.433Z,10.00
2022-08-26T23:56:27.650Z,10.77
2022-08-26T23:58:55.308Z,10.90
